GJS1027 KEWR-KSAV
Flight info
| Callsign | GJS1027 |
|---|---|
| Flight time | N/A |
| Altitude | 32000 |
| Route | ELVAE NECCK WHITE Q409 SESUE SOOOP |
| Aircraft | CRJ7/M-SDFGIRWY/S |
Departure
| Time | N/A |
|---|---|
| Airport | Newark Liberty International Airport (KEWR) |
Arrival
| Time | 2026-04-22 00:00 |
|---|---|
| Airport | Savannah Hilton Head International Airport (KSAV) |
| Time | Latitude | Longitude | Altitude | Speed | Heading |
|---|---|---|---|---|---|
| 2026-04-21 23:41 | 32.84471 | -80.25246 | 23418 ft | 450 kts | 213° |
| 2026-04-21 23:41 | 32.81749 | -80.27049 | 23091 ft | 445 kts | 213° |
| 2026-04-21 23:42 | 32.79060 | -80.28836 | 22772 ft | 441 kts | 213° |
| 2026-04-21 23:42 | 32.76398 | -80.30600 | 22487 ft | 436 kts | 213° |
| 2026-04-21 23:42 | 32.73754 | -80.32353 | 22231 ft | 435 kts | 213° |
| 2026-04-21 23:42 | 32.71142 | -80.34080 | 21975 ft | 436 kts | 213° |
| 2026-04-21 23:43 | 32.68490 | -80.35831 | 21723 ft | 436 kts | 213° |
| 2026-04-21 23:43 | 32.65844 | -80.37581 | 21473 ft | 436 kts | 213° |
| 2026-04-21 23:43 | 32.63187 | -80.39336 | 21226 ft | 436 kts | 213° |
| 2026-04-21 23:43 | 32.60535 | -80.41088 | 20978 ft | 437 kts | 213° |
| 2026-04-21 23:44 | 32.57882 | -80.42839 | 20732 ft | 437 kts | 213° |
| 2026-04-21 23:44 | 32.55230 | -80.44587 | 20641 ft | 433 kts | 213° |
| 2026-04-21 23:44 | 32.52600 | -80.46318 | 20510 ft | 431 kts | 213° |
| 2026-04-21 23:44 | 32.49987 | -80.48046 | 20407 ft | 429 kts | 212° |
| 2026-04-21 23:45 | 32.47391 | -80.49753 | 20388 ft | 425 kts | 212° |
| 2026-04-21 23:45 | 32.42486 | -80.53459 | 19553 ft | 418 kts | 229° |
| 2026-04-21 23:45 | 32.40825 | -80.56223 | 19006 ft | 411 kts | 247° |
| 2026-04-21 23:46 | 32.39763 | -80.59345 | 18480 ft | 409 kts | 253° |
| 2026-04-21 23:46 | 32.38873 | -80.62533 | 17882 ft | 409 kts | 256° |
| 2026-04-21 23:46 | 32.38077 | -80.65761 | 17295 ft | 409 kts | 257° |
| 2026-04-21 23:46 | 32.37407 | -80.69021 | 16711 ft | 407 kts | 263° |
| 2026-04-21 23:47 | 32.37388 | -80.72304 | 16140 ft | 393 kts | 277° |
| 2026-04-21 23:47 | 32.37676 | -80.75466 | 15579 ft | 382 kts | 278° |
| 2026-04-21 23:47 | 32.37934 | -80.78523 | 15033 ft | 374 kts | 277° |
| 2026-04-21 23:47 | 32.38089 | -80.81568 | 14477 ft | 368 kts | 274° |
| 2026-04-21 23:48 | 32.38166 | -80.84566 | 13930 ft | 361 kts | 273° |
| 2026-04-21 23:48 | 32.38226 | -80.87506 | 13318 ft | 354 kts | 274° |
| 2026-04-21 23:48 | 32.38299 | -80.90400 | 12720 ft | 349 kts | 274° |
| 2026-04-21 23:48 | 32.38366 | -80.93243 | 12143 ft | 344 kts | 274° |
| 2026-04-21 23:49 | 32.38439 | -80.96051 | 11575 ft | 339 kts | 274° |
| 2026-04-21 23:49 | 32.38511 | -80.98829 | 11016 ft | 336 kts | 274° |
| 2026-04-21 23:49 | 32.38574 | -81.01540 | 10477 ft | 332 kts | 274° |
| 2026-04-21 23:49 | 32.38642 | -81.04252 | 9908 ft | 329 kts | 273° |
| 2026-04-21 23:50 | 32.38715 | -81.06953 | 9307 ft | 326 kts | 274° |
| 2026-04-21 23:50 | 32.38772 | -81.09616 | 8723 ft | 323 kts | 273° |
| 2026-04-21 23:50 | 32.38841 | -81.12257 | 8149 ft | 319 kts | 274° |
| 2026-04-21 23:50 | 32.38909 | -81.14865 | 7576 ft | 315 kts | 274° |
| 2026-04-21 23:51 | 32.38977 | -81.17440 | 7007 ft | 311 kts | 273° |
| 2026-04-21 23:51 | 32.39035 | -81.19984 | 6438 ft | 307 kts | 273° |
| 2026-04-21 23:51 | 32.39100 | -81.22490 | 5846 ft | 303 kts | 273° |
| 2026-04-21 23:51 | 32.39156 | -81.24911 | 5291 ft | 292 kts | 273° |
| 2026-04-21 23:52 | 32.39208 | -81.27248 | 4767 ft | 277 kts | 273° |
| 2026-04-21 23:52 | 32.39244 | -81.29455 | 4501 ft | 264 kts | 272° |
| 2026-04-21 23:52 | 32.39306 | -81.31641 | 4329 ft | 267 kts | 272° |
| 2026-04-21 23:52 | 32.39314 | -81.33850 | 4094 ft | 271 kts | 263° |
| 2026-04-21 23:53 | 32.38627 | -81.35909 | 3874 ft | 272 kts | 233° |
| 2026-04-21 23:53 | 32.37193 | -81.37329 | 3738 ft | 270 kts | 204° |
| 2026-04-21 23:53 | 32.35380 | -81.37797 | 3611 ft | 267 kts | 179° |
| 2026-04-21 23:53 | 32.33529 | -81.37757 | 3485 ft | 266 kts | 176° |
| 2026-04-21 23:54 | 32.31681 | -81.37641 | 3366 ft | 266 kts | 175° |
| 2026-04-21 23:54 | 32.29832 | -81.37478 | 3217 ft | 266 kts | 174° |
| 2026-04-21 23:54 | 32.28014 | -81.37298 | 3087 ft | 266 kts | 173° |
| 2026-04-21 23:54 | 32.26175 | -81.37111 | 3092 ft | 266 kts | 173° |
| 2026-04-21 23:55 | 32.24326 | -81.36928 | 3112 ft | 267 kts | 173° |
| 2026-04-21 23:55 | 32.22468 | -81.36739 | 3122 ft | 269 kts | 173° |
| 2026-04-21 23:55 | 32.20595 | -81.36537 | 3117 ft | 271 kts | 173° |
| 2026-04-21 23:55 | 32.18716 | -81.36337 | 3112 ft | 273 kts | 173° |
| 2026-04-21 23:56 | 32.16803 | -81.36138 | 2973 ft | 279 kts | 173° |
| 2026-04-21 23:56 | 32.14861 | -81.35944 | 2819 ft | 275 kts | 173° |
| 2026-04-21 23:56 | 32.13115 | -81.35386 | 2652 ft | 255 kts | 148° |
| 2026-04-21 23:56 | 32.11933 | -81.33993 | 2470 ft | 232 kts | 116° |
| 2026-04-21 23:57 | 32.11626 | -81.32229 | 2094 ft | 216 kts | 84° |
| 2026-04-21 23:57 | 32.12062 | -81.30563 | 1543 ft | 207 kts | 69° |
| 2026-04-21 23:57 | 32.12545 | -81.29127 | 1482 ft | 164 kts | 73° |
| 2026-04-21 23:57 | 32.12774 | -81.28002 | 1268 ft | 127 kts | 83° |
| 2026-04-21 23:58 | 32.12871 | -81.26927 | 1052 ft | 134 kts | 88° |
| 2026-04-21 23:58 | 32.12924 | -81.25824 | 783 ft | 133 kts | 91° |
| 2026-04-21 23:58 | 32.12910 | -81.24774 | 570 ft | 123 kts | 92° |
| 2026-04-21 23:58 | 32.12900 | -81.23779 | 389 ft | 118 kts | 94° |
| 2026-04-21 23:59 | 32.12885 | -81.22832 | 219 ft | 117 kts | 94° |
| 2026-04-21 23:59 | 32.12874 | -81.21887 | 67 ft | 110 kts | 92° |
| 2026-04-21 23:59 | 32.12867 | -81.21130 | 47 ft | 71 kts | 90° |
| 2026-04-21 23:59 | 32.12864 | -81.20661 | 50 ft | 51 kts | 90° |
| 2026-04-22 00:00 | 32.12879 | -81.20350 | 48 ft | 19 kts | 50° |
| 2026-04-22 00:00 | 32.12961 | -81.20331 | 52 ft | 5 kts | 0° |